createdAt,value
2023-03-29T00:00:34.408Z,98233.34
2023-03-29T00:03:04.322Z,98243.77
2023-03-29T00:05:36.176Z,98237.46
2023-03-29T00:08:04.706Z,98241.11
2023-03-29T00:10:33.960Z,98236.85
2023-03-29T00:13:02.504Z,98236.48
2023-03-29T00:15:30.777Z,98238.71
2023-03-29T00:17:59.192Z,98239.18
2023-03-29T00:20:29.053Z,98235.38
2023-03-29T00:22:57.232Z,98244.84
2023-03-29T00:25:25.674Z,98248.73
2023-03-29T00:27:53.821Z,98249.73
2023-03-29T00:30:21.962Z,98247.55
2023-03-29T00:32:51.566Z,98251.08
2023-03-29T00:35:20.016Z,98251.83
2023-03-29T00:37:51.056Z,98254.91
2023-03-29T00:40:19.420Z,98248.92
2023-03-29T00:42:51.096Z,98248.78
2023-03-29T00:45:21.567Z,98253.53
2023-03-29T00:48:09.415Z,98248.48
2023-03-29T00:50:48.637Z,98254.73
2023-03-29T00:53:37.510Z,98252.91
2023-03-29T00:56:07.843Z,98263.16
2023-03-29T00:59:03.844Z,98266.23
2023-03-29T01:01:46.180Z,98269.88
2023-03-29T01:04:31.934Z,98279.98
2023-03-29T01:07:04.670Z,98286.76
2023-03-29T01:09:34.548Z,98295.30
2023-03-29T01:12:04.402Z,98295.20
2023-03-29T01:14:41.882Z,98300.71
2023-03-29T01:17:12.873Z,98308.67
2023-03-29T01:19:44.236Z,98308.45
2023-03-29T01:22:22.613Z,98310.88
2023-03-29T01:25:30.551Z,98308.61
2023-03-29T01:28:18.856Z,98315.16
2023-03-29T01:30:50.197Z,98322.44
2023-03-29T01:33:23.448Z,98317.20
2023-03-29T01:35:57.707Z,98326.86
2023-03-29T01:38:28.404Z,98330.31
2023-03-29T01:41:00.491Z,98333.90
2023-03-29T01:43:36.355Z,98338.25
2023-03-29T01:46:07.680Z,98345.60
2023-03-29T01:48:52.375Z,98346.77
2023-03-29T01:51:49.577Z,98348.33
2023-03-29T01:54:37.104Z,98358.85
2023-03-29T01:57:05.858Z,98361.00
2023-03-29T01:59:34.820Z,98366.79
2023-03-29T02:02:05.569Z,98376.89
2023-03-29T02:04:36.510Z,98375.33
2023-03-29T02:07:07.401Z,98372.92
2023-03-29T02:09:37.798Z,98383.70
2023-03-29T02:12:08.635Z,98386.25
2023-03-29T02:14:38.329Z,98390.91
2023-03-29T02:17:21.067Z,98404.87
2023-03-29T02:19:53.461Z,98411.04
2023-03-29T02:22:28.619Z,98413.64
2023-03-29T02:24:59.447Z,98417.40
2023-03-29T02:27:29.245Z,98419.46
2023-03-29T02:29:59.356Z,98416.48
2023-03-29T02:32:38.310Z,98423.13
2023-03-29T02:35:08.282Z,98417.76
2023-03-29T02:37:36.647Z,98432.02
2023-03-29T02:40:08.162Z,98432.27
2023-03-29T02:42:37.703Z,98435.11
2023-03-29T02:45:11.368Z,98440.56
2023-03-29T02:47:41.842Z,98434.67
2023-03-29T02:50:12.592Z,98432.98
2023-03-29T02:52:43.324Z,98429.11
2023-03-29T02:55:15.054Z,98430.95
2023-03-29T02:57:45.606Z,98435.17
2023-03-29T03:00:14.838Z,98431.52
2023-03-29T03:02:44.433Z,98437.56
2023-03-29T03:05:17.838Z,98432.36
2023-03-29T03:07:46.503Z,98434.06
2023-03-29T03:10:15.157Z,98440.16
2023-03-29T03:12:47.811Z,98443.36
2023-03-29T03:15:18.649Z,98445.41
2023-03-29T03:17:47.645Z,98445.73
2023-03-29T03:20:16.203Z,98445.02
2023-03-29T03:22:49.153Z,98447.00
2023-03-29T03:25:23.521Z,98452.84
2023-03-29T03:27:51.710Z,98455.45
2023-03-29T03:30:21.748Z,98460.88
2023-03-29T03:33:09.775Z,98468.46
2023-03-29T03:36:02.982Z,98472.57
2023-03-29T03:38:33.228Z,98469.64
2023-03-29T03:41:02.432Z,98464.13
2023-03-29T03:43:33.733Z,98469.58
2023-03-29T03:46:02.361Z,98469.20
2023-03-29T03:48:32.220Z,98468.08
2023-03-29T03:51:07.649Z,98475.77
2023-03-29T03:53:36.739Z,98477.48
2023-03-29T03:56:14.135Z,98481.98
2023-03-29T03:59:05.548Z,98485.92
2023-03-29T04:01:50.956Z,98492.65
2023-03-29T04:04:20.781Z,98488.73
2023-03-29T04:07:02.980Z,98492.09
2023-03-29T04:09:37.774Z,98490.57
2023-03-29T04:12:17.439Z,98489.26
2023-03-29T04:14:47.574Z,98492.42
2023-03-29T04:17:23.357Z,98497.92
2023-03-29T04:19:57.606Z,98501.61
2023-03-29T04:22:32.818Z,98501.08
2023-03-29T04:25:01.843Z,98511.11
2023-03-29T04:27:53.171Z,98515.73
2023-03-29T04:30:45.337Z,98524.33
2023-03-29T04:33:17.864Z,98527.86
2023-03-29T04:35:49.959Z,98534.16
2023-03-29T04:38:23.408Z,98535.35
2023-03-29T04:40:52.523Z,98540.50
2023-03-29T04:43:56.302Z,98539.21
2023-03-29T04:46:26.848Z,98540.92
2023-03-29T04:49:16.429Z,98541.54
2023-03-29T04:51:49.050Z,98542.79
2023-03-29T04:54:22.700Z,98540.27
2023-03-29T04:57:01.716Z,98536.77
2023-03-29T04:59:41.905Z,98544.81
2023-03-29T05:02:19.362Z,98542.42
2023-03-29T05:04:49.429Z,98550.07
2023-03-29T05:07:20.054Z,98551.77
2023-03-29T05:09:48.734Z,98556.65
2023-03-29T05:12:17.417Z,98558.95
2023-03-29T05:14:51.728Z,98559.50
2023-03-29T05:17:22.573Z,98559.63
2023-03-29T05:19:50.879Z,98557.42
2023-03-29T05:22:23.567Z,98563.80
2023-03-29T05:24:53.308Z,98562.52
2023-03-29T05:27:23.024Z,98563.23
2023-03-29T05:30:02.626Z,98568.81
2023-03-29T05:32:38.197Z,98573.76
2023-03-29T05:35:07.019Z,98566.94
2023-03-29T05:37:36.240Z,98570.63
2023-03-29T05:40:08.134Z,98565.73
2023-03-29T05:42:45.453Z,98566.32
2023-03-29T05:45:13.945Z,98575.89
2023-03-29T05:47:43.152Z,98581.65
2023-03-29T05:50:11.501Z,98579.28
2023-03-29T05:52:41.216Z,98586.20
2023-03-29T05:55:10.423Z,98586.45
2023-03-29T05:57:38.786Z,98595.13
2023-03-29T06:00:19.769Z,98595.55
2023-03-29T06:02:48.533Z,98599.28
2023-03-29T06:05:17.129Z,98604.63
2023-03-29T06:08:05.494Z,98604.73
2023-03-29T06:11:05.093Z,98608.76
2023-03-29T06:13:54.205Z,98611.89
2023-03-29T06:16:23.399Z,98619.73
2023-03-29T06:18:51.426Z,98624.72
2023-03-29T06:21:22.427Z,98628.83
2023-03-29T06:23:51.578Z,98632.11
2023-03-29T06:26:20.161Z,98634.25
2023-03-29T06:28:51.374Z,98636.23
2023-03-29T06:31:21.177Z,98639.96
2023-03-29T06:33:54.013Z,98639.05
2023-03-29T06:36:35.152Z,98643.58
2023-03-29T06:39:05.867Z,98641.30
2023-03-29T06:42:05.233Z,98646.67
2023-03-29T06:45:06.671Z,98645.64
2023-03-29T06:47:35.168Z,98647.73
2023-03-29T06:50:03.233Z,98647.67
2023-03-29T06:52:42.212Z,98655.13
2023-03-29T06:55:13.698Z,98656.81
2023-03-29T06:57:44.759Z,98666.62
2023-03-29T07:00:22.925Z,98667.17
2023-03-29T07:03:09.910Z,98668.50
2023-03-29T07:05:42.488Z,98685.05
2023-03-29T07:08:15.233Z,98690.93
2023-03-29T07:10:52.882Z,98694.71
2023-03-29T07:13:23.756Z,98695.17
2023-03-29T07:15:54.178Z,98702.56
2023-03-29T07:18:51.812Z,98707.27
2023-03-29T07:21:46.597Z,98708.73
2023-03-29T07:24:16.731Z,98709.29
2023-03-29T07:27:00.196Z,98714.95
2023-03-29T07:29:33.150Z,98728.84
2023-03-29T07:32:01.183Z,98739.75
2023-03-29T07:34:44.452Z,98743.35
2023-03-29T07:37:19.084Z,98738.87
2023-03-29T07:39:47.323Z,98741.70
2023-03-29T07:42:39.504Z,98746.73
2023-03-29T07:45:09.803Z,98747.13
2023-03-29T07:47:46.534Z,98756.30
2023-03-29T07:50:18.196Z,98757.30
2023-03-29T07:52:49.346Z,98757.11
2023-03-29T07:55:17.944Z,98755.31
2023-03-29T07:58:09.136Z,98756.77
2023-03-29T08:00:38.293Z,98766.09
2023-03-29T08:03:25.030Z,98768.52
2023-03-29T08:06:02.880Z,98774.66
2023-03-29T08:08:33.494Z,98780.48
2023-03-29T08:11:09.029Z,98782.29
2023-03-29T08:13:59.096Z,98782.19
2023-03-29T08:16:27.360Z,98787.04
2023-03-29T08:19:21.770Z,98795.94
2023-03-29T08:21:57.582Z,98798.11
2023-03-29T08:24:27.030Z,98799.26
2023-03-29T08:27:00.293Z,98798.48
2023-03-29T08:29:29.385Z,98802.92
2023-03-29T08:31:59.580Z,98797.64
2023-03-29T08:34:28.857Z,98801.86
2023-03-29T08:37:13.890Z,98804.13
2023-03-29T08:39:46.131Z,98807.55
2023-03-29T08:43:07.139Z,98808.95
2023-03-29T08:46:34.552Z,98820.41
2023-03-29T08:49:09.984Z,98816.92
2023-03-29T08:51:42.952Z,98824.35
2023-03-29T08:54:12.690Z,98825.61
2023-03-29T08:57:16.268Z,98827.66
2023-03-29T08:59:51.576Z,98821.84
2023-03-29T09:02:25.418Z,98826.25
2023-03-29T09:05:17.784Z,98828.86
2023-03-29T09:07:54.954Z,98825.30
2023-03-29T09:10:30.537Z,98820.35
2023-03-29T09:13:08.052Z,98828.82
2023-03-29T09:15:45.732Z,98836.39
2023-03-29T09:18:30.615Z,98840.63
2023-03-29T09:21:40.682Z,98845.31
2023-03-29T09:24:15.716Z,98853.17
2023-03-29T09:26:57.200Z,98852.66
2023-03-29T09:29:50.457Z,98856.92
2023-03-29T09:32:22.584Z,98859.94
2023-03-29T09:35:26.216Z,98862.83
2023-03-29T09:37:55.292Z,98863.89
2023-03-29T09:40:32.129Z,98867.00
2023-03-29T09:43:10.640Z,98873.80
2023-03-29T09:45:42.382Z,98875.00
2023-03-29T09:48:15.561Z,98874.60
2023-03-29T09:50:48.578Z,98877.13
2023-03-29T09:53:19.823Z,98874.59
2023-03-29T09:55:56.752Z,98886.03
2023-03-29T09:58:34.643Z,98888.60
2023-03-29T10:01:09.167Z,98891.38
2023-03-29T10:03:42.020Z,98903.82
2023-03-29T10:06:15.308Z,98909.26
2023-03-29T10:08:55.265Z,98910.98
2023-03-29T10:11:30.177Z,98919.55
2023-03-29T10:14:21.414Z,98918.45
2023-03-29T10:16:56.100Z,98921.84
2023-03-29T10:19:31.381Z,98925.45
2023-03-29T10:22:17.878Z,98928.29
2023-03-29T10:24:53.439Z,98925.48
2023-03-29T10:27:28.364Z,98927.86
2023-03-29T10:30:00.350Z,98933.84
2023-03-29T10:32:33.655Z,98932.54
2023-03-29T10:35:33.455Z,98935.30
2023-03-29T10:38:03.928Z,98942.98
2023-03-29T10:40:40.318Z,98944.13
2023-03-29T10:43:35.728Z,98945.34
2023-03-29T10:46:22.838Z,98946.80
2023-03-29T10:49:06.210Z,98944.85
2023-03-29T10:51:34.700Z,98944.55
2023-03-29T10:54:03.257Z,98943.79
2023-03-29T10:57:44.044Z,98943.34
2023-03-29T11:00:31.829Z,98947.14
2023-03-29T11:03:07.980Z,98945.47
2023-03-29T11:05:41.519Z,98943.86
2023-03-29T11:08:36.239Z,98949.27
2023-03-29T11:11:21.924Z,98955.08
2023-03-29T11:14:01.883Z,98958.69
2023-03-29T11:16:52.558Z,98959.12
2023-03-29T11:19:40.357Z,98959.20
2023-03-29T11:22:29.171Z,98960.12
2023-03-29T11:25:29.725Z,98961.87
2023-03-29T11:28:16.742Z,98961.91
2023-03-29T11:30:54.334Z,98956.96
2023-03-29T11:33:36.231Z,98964.11
2023-03-29T11:36:29.696Z,98959.84
2023-03-29T11:39:11.447Z,98966.13
2023-03-29T11:41:46.400Z,98965.73
2023-03-29T11:44:33.016Z,98963.33
2023-03-29T11:47:10.276Z,98962.06
2023-03-29T11:50:16.305Z,98963.17
2023-03-29T11:52:51.078Z,98960.83
2023-03-29T11:55:26.549Z,98969.79
2023-03-29T11:58:16.518Z,98969.67
2023-03-29T12:00:52.164Z,98976.30
2023-03-29T12:03:37.277Z,98977.58
2023-03-29T12:06:21.920Z,98976.36
2023-03-29T12:09:08.662Z,98980.45
2023-03-29T12:11:48.458Z,98984.95
2023-03-29T12:14:35.555Z,98984.45
2023-03-29T12:17:11.704Z,98983.94
2023-03-29T12:19:50.465Z,98983.99
2023-03-29T12:22:19.056Z,98986.52
2023-03-29T12:24:48.007Z,98992.80
2023-03-29T12:27:20.929Z,99000.20
2023-03-29T12:30:17.147Z,99003.36
2023-03-29T12:33:15.675Z,98999.01
2023-03-29T12:36:13.950Z,99002.77
2023-03-29T12:39:17.400Z,99000.46
2023-03-29T12:42:17.155Z,99002.15
2023-03-29T12:45:04.769Z,99005.99
2023-03-29T12:47:43.957Z,99010.66
2023-03-29T12:50:23.171Z,99013.27
2023-03-29T12:52:54.229Z,99007.58
2023-03-29T12:55:32.438Z,99014.40
2023-03-29T12:58:07.102Z,99016.11
2023-03-29T13:00:44.295Z,99018.91
2023-03-29T13:03:47.670Z,99021.16
2023-03-29T13:06:46.686Z,99013.94
2023-03-29T13:09:22.195Z,99016.20
2023-03-29T13:11:57.647Z,99021.20
2023-03-29T13:14:46.737Z,99024.45
2023-03-29T13:17:27.695Z,99024.05
2023-03-29T13:20:33.694Z,99022.88
2023-03-29T13:23:20.826Z,99027.78
2023-03-29T13:26:06.428Z,99039.59
2023-03-29T13:28:40.748Z,99047.77
2023-03-29T13:31:27.515Z,99047.80
2023-03-29T13:34:28.207Z,99055.42
2023-03-29T13:37:13.292Z,99056.64
2023-03-29T13:39:49.900Z,99065.09
2023-03-29T13:42:21.721Z,99075.61
2023-03-29T13:44:50.030Z,99081.34
2023-03-29T13:47:33.791Z,99084.09
2023-03-29T13:50:13.639Z,99094.17
2023-03-29T13:52:51.786Z,99095.83
2023-03-29T13:55:25.754Z,99099.92
2023-03-29T13:58:05.122Z,99098.61
2023-03-29T14:00:49.240Z,99106.81
2023-03-29T14:03:18.717Z,99115.27
2023-03-29T14:06:00.523Z,99123.29
2023-03-29T14:08:40.002Z,99133.14
2023-03-29T14:11:29.218Z,99134.14
2023-03-29T14:14:02.973Z,99137.92
2023-03-29T14:16:33.610Z,99142.13
2023-03-29T14:19:16.257Z,99143.10
2023-03-29T14:21:44.617Z,99146.38
2023-03-29T14:24:20.721Z,99150.45
2023-03-29T14:26:52.403Z,99148.71
2023-03-29T14:29:33.478Z,99150.61
2023-03-29T14:32:12.791Z,99152.55
2023-03-29T14:34:41.109Z,99158.05
2023-03-29T14:37:11.486Z,99161.14
2023-03-29T14:39:41.028Z,99161.27
2023-03-29T14:42:21.394Z,99164.20
2023-03-29T14:44:49.957Z,99166.81
2023-03-29T14:47:26.755Z,99167.20
2023-03-29T14:49:57.190Z,99173.20
2023-03-29T14:52:25.415Z,99172.70
2023-03-29T14:54:57.803Z,99172.67
2023-03-29T14:57:29.111Z,99176.12
2023-03-29T15:00:02.254Z,99176.59
2023-03-29T15:02:33.147Z,99182.67
2023-03-29T15:05:03.477Z,99179.99
2023-03-29T15:07:34.830Z,99184.45
2023-03-29T15:10:06.019Z,99181.66
2023-03-29T15:12:35.078Z,99190.64
2023-03-29T15:15:04.355Z,99190.13
2023-03-29T15:17:50.921Z,99194.82
2023-03-29T15:20:27.619Z,99198.87
2023-03-29T15:23:20.795Z,99196.94
2023-03-29T15:25:54.805Z,99204.03
2023-03-29T15:28:23.795Z,99209.80
2023-03-29T15:31:07.860Z,99209.81
2023-03-29T15:33:39.342Z,99211.51
2023-03-29T15:36:13.009Z,99209.66
2023-03-29T15:38:44.449Z,99216.95
2023-03-29T15:41:14.400Z,99221.22
2023-03-29T15:43:47.288Z,99229.74
2023-03-29T15:46:16.525Z,99235.84
2023-03-29T15:48:44.847Z,99234.46
2023-03-29T15:51:13.199Z,99240.83
2023-03-29T15:53:42.379Z,99242.59
2023-03-29T15:56:17.857Z,99244.95
2023-03-29T15:58:48.630Z,99252.65
2023-03-29T16:01:35.813Z,99259.05
2023-03-29T16:04:11.079Z,99255.26
2023-03-29T16:06:41.505Z,99260.63
2023-03-29T16:09:12.109Z,99262.99
2023-03-29T16:11:41.397Z,99261.44
2023-03-29T16:14:27.250Z,99263.02
2023-03-29T16:16:57.149Z,99260.86
2023-03-29T16:19:32.317Z,99264.48
2023-03-29T16:22:02.240Z,99270.87
2023-03-29T16:24:31.856Z,99266.69
2023-03-29T16:27:01.577Z,99263.54
2023-03-29T16:29:30.654Z,99267.59
2023-03-29T16:31:58.838Z,99268.59
2023-03-29T16:34:27.047Z,99267.73
2023-03-29T16:36:55.026Z,99271.55
2023-03-29T16:39:25.714Z,99270.80
2023-03-29T16:41:53.664Z,99273.88
2023-03-29T16:44:23.601Z,99279.72
2023-03-29T16:46:57.593Z,99285.93
2023-03-29T16:49:25.813Z,99289.86
2023-03-29T16:52:01.166Z,99297.10
2023-03-29T16:54:32.660Z,99297.63
2023-03-29T16:57:00.751Z,99304.11
2023-03-29T16:59:28.913Z,99306.17
2023-03-29T17:01:57.215Z,99307.40
2023-03-29T17:04:26.339Z,99310.73
2023-03-29T17:06:54.682Z,99318.01
2023-03-29T17:09:22.737Z,99320.88
2023-03-29T17:11:51.483Z,99322.30
2023-03-29T17:14:19.533Z,99326.73
2023-03-29T17:16:47.830Z,99330.00
2023-03-29T17:19:16.356Z,99336.45
2023-03-29T17:21:44.482Z,99340.77
2023-03-29T17:24:14.104Z,99333.85
2023-03-29T17:26:45.865Z,99339.63
2023-03-29T17:29:14.215Z,99340.27
2023-03-29T17:31:48.055Z,99339.31
2023-03-29T17:34:17.675Z,99340.91
2023-03-29T17:36:46.057Z,99343.16
2023-03-29T17:39:15.472Z,99344.19
2023-03-29T17:41:43.824Z,99343.46
2023-03-29T17:44:16.920Z,99344.88
2023-03-29T17:46:45.153Z,99350.94
2023-03-29T17:49:15.156Z,99351.42
2023-03-29T17:51:43.726Z,99353.16
2023-03-29T17:54:12.554Z,99364.51
2023-03-29T17:56:40.916Z,99372.29
2023-03-29T17:59:08.996Z,99373.34
2023-03-29T18:01:39.430Z,99372.55
2023-03-29T18:04:08.122Z,99376.01
2023-03-29T18:06:36.465Z,99381.13
2023-03-29T18:09:13.027Z,99386.27
2023-03-29T18:11:42.820Z,99395.06
2023-03-29T18:14:11.560Z,99392.76
2023-03-29T18:16:42.313Z,99400.96
2023-03-29T18:19:11.091Z,99400.64
2023-03-29T18:21:39.318Z,99400.77
2023-03-29T18:24:08.322Z,99401.15
2023-03-29T18:26:36.460Z,99399.40
2023-03-29T18:29:04.416Z,99394.17
2023-03-29T18:31:33.212Z,99397.55
2023-03-29T18:34:01.433Z,99400.08
2023-03-29T18:36:30.468Z,99402.61
2023-03-29T18:39:05.457Z,99404.04
2023-03-29T18:41:37.457Z,99410.09
2023-03-29T18:44:07.672Z,99407.00
2023-03-29T18:46:36.844Z,99409.97
2023-03-29T18:49:05.897Z,99410.75
2023-03-29T18:51:34.898Z,99414.44
2023-03-29T18:54:04.563Z,99412.24
2023-03-29T18:56:32.775Z,99416.45
2023-03-29T18:59:06.571Z,99419.17
2023-03-29T19:01:35.920Z,99414.48
2023-03-29T19:04:04.228Z,99420.27
2023-03-29T19:06:33.471Z,99419.96
2023-03-29T19:09:04.271Z,99417.45
2023-03-29T19:11:34.511Z,99415.55
2023-03-29T19:14:04.340Z,99418.71
2023-03-29T19:16:33.296Z,99418.52
2023-03-29T19:19:01.574Z,99420.33
2023-03-29T19:21:37.531Z,99418.25
2023-03-29T19:24:07.815Z,99418.14
2023-03-29T19:26:35.990Z,99415.30
2023-03-29T19:29:05.715Z,99421.27
2023-03-29T19:31:36.040Z,99419.11
2023-03-29T19:34:05.472Z,99419.01
2023-03-29T19:36:34.073Z,99420.41
2023-03-29T19:39:02.260Z,99423.85
2023-03-29T19:41:31.541Z,99428.40
2023-03-29T19:43:59.712Z,99429.04
2023-03-29T19:46:29.181Z,99426.33
2023-03-29T19:48:59.743Z,99425.91
2023-03-29T19:51:27.964Z,99429.77
2023-03-29T19:53:56.378Z,99427.35
2023-03-29T19:56:25.796Z,99426.86
2023-03-29T19:58:57.868Z,99425.79
2023-03-29T20:01:27.348Z,99430.88
2023-03-29T20:03:56.525Z,99427.80
2023-03-29T20:06:25.259Z,99429.30
2023-03-29T20:08:54.009Z,99431.85
2023-03-29T20:11:24.273Z,99436.63
2023-03-29T20:13:52.621Z,99435.73
2023-03-29T20:16:25.845Z,99435.70
2023-03-29T20:18:56.924Z,99433.36
2023-03-29T20:21:25.594Z,99441.58
2023-03-29T20:23:55.487Z,99445.45
2023-03-29T20:26:26.138Z,99444.61
2023-03-29T20:28:54.574Z,99442.87
2023-03-29T20:31:22.841Z,99442.39
2023-03-29T20:33:51.052Z,99447.46
2023-03-29T20:36:26.746Z,99438.42
2023-03-29T20:38:56.372Z,99445.30
2023-03-29T20:41:25.126Z,99448.69
2023-03-29T20:43:58.435Z,99448.06
2023-03-29T20:46:34.196Z,99446.02
2023-03-29T20:49:07.339Z,99449.77
2023-03-29T20:51:39.288Z,99452.24
2023-03-29T20:54:14.809Z,99454.71
2023-03-29T20:56:44.531Z,99458.41
2023-03-29T20:59:13.813Z,99457.38
2023-03-29T21:01:42.531Z,99460.99
2023-03-29T21:04:12.233Z,99458.95
2023-03-29T21:06:40.644Z,99463.59
2023-03-29T21:09:08.653Z,99460.41
2023-03-29T21:11:43.880Z,99465.73
2023-03-29T21:14:13.935Z,99463.24
2023-03-29T21:16:43.846Z,99464.58
2023-03-29T21:19:15.063Z,99467.94
2023-03-29T21:21:47.587Z,99467.66
2023-03-29T21:24:19.348Z,99465.39
2023-03-29T21:26:48.262Z,99466.73
2023-03-29T21:29:16.305Z,99468.69
2023-03-29T21:31:44.914Z,99469.61
2023-03-29T21:34:13.141Z,99468.95
2023-03-29T21:36:44.382Z,99467.74
2023-03-29T21:39:12.362Z,99470.31
2023-03-29T21:41:43.331Z,99472.47
2023-03-29T21:44:11.742Z,99475.19
2023-03-29T21:46:39.960Z,99473.11
2023-03-29T21:49:08.076Z,99477.58
2023-03-29T21:51:36.284Z,99480.56
2023-03-29T21:54:04.868Z,99483.77
2023-03-29T21:56:34.291Z,99486.04
2023-03-29T21:59:02.275Z,99483.35
2023-03-29T22:01:32.249Z,99487.70
2023-03-29T22:04:00.643Z,99488.92
2023-03-29T22:06:30.032Z,99492.44
2023-03-29T22:09:00.778Z,99491.02
2023-03-29T22:11:30.507Z,99493.95
2023-03-29T22:13:58.544Z,99493.48
2023-03-29T22:16:28.494Z,99488.95
2023-03-29T22:18:57.933Z,99494.52
2023-03-29T22:21:31.186Z,99497.13
2023-03-29T22:24:02.139Z,99497.17
2023-03-29T22:26:34.059Z,99498.41
2023-03-29T22:29:02.106Z,99501.07
2023-03-29T22:31:32.170Z,99501.67
2023-03-29T22:34:02.831Z,99502.13
2023-03-29T22:36:31.888Z,99497.24
2023-03-29T22:38:59.937Z,99497.17
2023-03-29T22:41:28.343Z,99494.25
2023-03-29T22:43:57.498Z,99493.69
2023-03-29T22:46:26.443Z,99494.98
2023-03-29T22:48:54.923Z,99494.44
2023-03-29T22:51:23.974Z,99496.96
2023-03-29T22:53:52.815Z,99493.06
2023-03-29T22:56:20.800Z,99496.81
2023-03-29T22:58:49.550Z,99493.89
2023-03-29T23:01:17.830Z,99495.41
2023-03-29T23:03:45.906Z,99502.42
2023-03-29T23:06:13.976Z,99497.17
2023-03-29T23:08:42.081Z,99499.08
2023-03-29T23:14:09.633Z,99494.99
2023-03-29T23:16:37.597Z,99500.05
2023-03-29T23:19:06.832Z,99500.53
2023-03-29T23:21:37.068Z,99504.02
2023-03-29T23:24:07.098Z,99501.02
2023-03-29T23:26:37.641Z,99504.41
2023-03-29T23:29:06.230Z,99506.59
2023-03-29T23:31:36.310Z,99507.23
2023-03-29T23:34:05.569Z,99505.02
2023-03-29T23:36:33.673Z,99504.13
2023-03-29T23:39:01.931Z,99500.48
2023-03-29T23:41:31.724Z,99504.60
2023-03-29T23:44:01.403Z,99506.02
2023-03-29T23:46:30.295Z,99508.36
2023-03-29T23:48:58.398Z,99504.83
2023-03-29T23:51:28.256Z,99497.00
2023-03-29T23:53:56.906Z,99502.17
2023-03-29T23:56:28.421Z,99505.76
2023-03-29T23:58:56.917Z,99508.92
